Rantum — V2BQ — position and weather

sailwx.info

Track history (hours):
 
Tides and Currents Weather Stations Pressure Air Temp Water Temp Dewpoint Dewpoint Depression Visibility Wind Speed Wind Dir Waves Ship Positions

Rantum

Last reported at 2014-Feb-26 16:10 UTC. Time now 2014-Oct-24 16:11 UTC.
Position N 40°52' E 029°12'.
Warning: this ship's position is months out of date.

Length 90 m; draft 3 m.

Type: Cargo ship. MMSI: 304010147.

Date/timePositionNaut miles runAvg speedWind from/ knotsBaromVisibWave heightAir tempDewpointWater temp
2014-Feb-26 16:10N 40°52' E 029°12'0 0.0
2014-Feb-26 15:28N 40°52' E 029°12'0 0.0
2014-Feb-26 14:28N 40°52' E 029°12'0 0.0
2014-Feb-26 13:28N 40°52' E 029°12'0 0.0
2014-Feb-26 12:28N 40°52' E 029°12'0 0.0
2014-Feb-26 11:28N 40°52' E 029°12'0 0.0
2014-Feb-26 10:16N 40°52' E 029°12'0 0.0
2014-Feb-24 09:23N 40°52' E 029°12'  
2014-Feb-21 15:33N 40°43' E 029°14'9 8.3
2014-Feb-21 14:29N 40°43' E 029°02'  
2014-Feb-18 01:33N 37°52' E 024°37'9 8.5
2014-Feb-18 00:30N 37°44' E 024°34'8 8.2
2014-Feb-17 23:33N 37°36' E 024°31'8 8.2
2014-Feb-17 22:33N 37°30' E 024°24'9 8.4
2014-Feb-17 21:30N 37°23' E 024°18'9 8.6
2014-Feb-17 20:30N 37°16' E 024°11'9 8.5
2014-Feb-17 19:26N 37°09' E 024°04'26 8.4
2014-Feb-17 16:18N 36°49' E 023°43'7 8.9
2014-Feb-17 15:32N 36°44' E 023°38'9 9.0
2014-Feb-17 14:33N 36°37' E 023°30'11 8.9
2014-Feb-17 13:19N 36°28' E 023°22'14 7.5
2014-Feb-17 11:25N 36°22' E 023°06'  
Track history (hours):
 
Tides and Currents Weather Stations Pressure Air Temp Water Temp Dewpoint Dewpoint Depression Visibility Wind Speed Wind Dir Waves Ship Positions

Rantum

Last reported at 2014-Feb-26 16:10 UTC. Time now 2014-Oct-24 16:11 UTC.
Position N 40°52' E 029°12'.
Warning: this ship's position is months out of date.

Length 90 m; draft 3 m.

Type: Cargo ship. MMSI: 304010147.

Date/timePositionNaut miles runAvg speedWind from/ knotsBaromVisibWave heightAir tempDewpointWater temp
2014-Feb-26 16:10N 40°52' E 029°12'0 0.0
2014-Feb-26 15:28N 40°52' E 029°12'0 0.0
2014-Feb-26 14:28N 40°52' E 029°12'0 0.0
2014-Feb-26 13:28N 40°52' E 029°12'0 0.0
2014-Feb-26 12:28N 40°52' E 029°12'0 0.0
2014-Feb-26 11:28N 40°52' E 029°12'0 0.0
2014-Feb-26 10:16N 40°52' E 029°12'0 0.0
2014-Feb-24 09:23N 40°52' E 029°12'  
2014-Feb-21 15:33N 40°43' E 029°14'9 8.3
2014-Feb-21 14:29N 40°43' E 029°02'  
2014-Feb-18 01:33N 37°52' E 024°37'9 8.5
2014-Feb-18 00:30N 37°44' E 024°34'8 8.2
2014-Feb-17 23:33N 37°36' E 024°31'8 8.2
2014-Feb-17 22:33N 37°30' E 024°24'9 8.4
2014-Feb-17 21:30N 37°23' E 024°18'9 8.6
2014-Feb-17 20:30N 37°16' E 024°11'9 8.5
2014-Feb-17 19:26N 37°09' E 024°04'26 8.4
2014-Feb-17 16:18N 36°49' E 023°43'7 8.9
2014-Feb-17 15:32N 36°44' E 023°38'9 9.0
2014-Feb-17 14:33N 36°37' E 023°30'11 8.9
2014-Feb-17 13:19N 36°28' E 023°22'14 7.5
2014-Feb-17 11:25N 36°22' E 023°06'  

Dump ship's entire track history